sensor_id;sensor_type;location;lat;lon;timestamp;P1;P2;P0
55485;PMS5003;49383;-25.924;28.194;2023-05-07T00:00:51;41;35;
55485;PMS5003;49383;-25.924;28.194;2023-05-07T00:03:16;31;31;
55485;PMS5003;49383;-25.924;28.194;2023-05-07T00:05:41;44;43;
55485;PMS5003;49383;-25.924;28.194;2023-05-07T00:08:06;37;36;
55485;PMS5003;49383;-25.924;28.194;2023-05-07T00:10:31;31;29;
55485;PMS5003;49383;-25.924;28.194;2023-05-07T00:12:57;35;31;
55485;PMS5003;49383;-25.924;28.194;2023-05-07T00:15:22;44;42;
55485;PMS5003;49383;-25.924;28.194;2023-05-07T00:17:48;42;36;
55485;PMS5003;49383;-25.924;28.194;2023-05-07T00:20:13;47;47;
55485;PMS5003;49383;-25.924;28.194;2023-05-07T00:22:39;40;40;
55485;PMS5003;49383;-25.924;28.194;2023-05-07T00:25:06;63;62;
55485;PMS5003;49383;-25.924;28.194;2023-05-07T00:27:30;62;62;
55485;PMS5003;49383;-25.924;28.194;2023-05-07T00:29:55;37;33;
55485;PMS5003;49383;-25.924;28.194;2023-05-07T00:32:20;38;37;
55485;PMS5003;49383;-25.924;28.194;2023-05-07T00:34:45;40;35;
55485;PMS5003;49383;-25.924;28.194;2023-05-07T00:37:11;47;45;
55485;PMS5003;49383;-25.924;28.194;2023-05-07T00:39:37;53;51;
55485;PMS5003;49383;-25.924;28.194;2023-05-07T00:42:01;36;35;
55485;PMS5003;49383;-25.924;28.194;2023-05-07T00:44:27;48;47;
55485;PMS5003;49383;-25.924;28.194;2023-05-07T00:46:52;40;32;
55485;PMS5003;49383;-25.924;28.194;2023-05-07T00:49:18;34;30;
55485;PMS5003;49383;-25.924;28.194;2023-05-07T00:51:44;63;62;
55485;PMS5003;49383;-25.924;28.194;2023-05-07T00:54:09;30;30;
55485;PMS5003;49383;-25.924;28.194;2023-05-07T00:56:35;47;46;
55485;PMS5003;49383;-25.924;28.194;2023-05-07T00:59:00;31;30;
55485;PMS5003;49383;-25.924;28.194;2023-05-07T01:01:25;38;31;
55485;PMS5003;49383;-25.924;28.194;2023-05-07T01:03:51;30;30;
55485;PMS5003;49383;-25.924;28.194;2023-05-07T01:06:17;36;32;
55485;PMS5003;49383;-25.924;28.194;2023-05-07T01:08:42;36;33;
55485;PMS5003;49383;-25.924;28.194;2023-05-07T01:11:07;47;46;
55485;PMS5003;49383;-25.924;28.194;2023-05-07T01:13:32;32;31;
55485;PMS5003;49383;-25.924;28.194;2023-05-07T01:15:58;42;39;
55485;PMS5003;49383;-25.924;28.194;2023-05-07T01:18:23;31;30;
55485;PMS5003;49383;-25.924;28.194;2023-05-07T01:20:48;36;33;
55485;PMS5003;49383;-25.924;28.194;2023-05-07T01:23:13;38;32;
55485;PMS5003;49383;-25.924;28.194;2023-05-07T01:25:38;42;41;
55485;PMS5003;49383;-25.924;28.194;2023-05-07T01:28:04;30;29;
55485;PMS5003;49383;-25.924;28.194;2023-05-07T01:30:30;31;30;
55485;PMS5003;49383;-25.924;28.194;2023-05-07T01:32:58;45;39;
55485;PMS5003;49383;-25.924;28.194;2023-05-07T01:35:21;35;34;
55485;PMS5003;49383;-25.924;28.194;2023-05-07T01:37:46;34;33;
55485;PMS5003;49383;-25.924;28.194;2023-05-07T01:40:12;31;30;
55485;PMS5003;49383;-25.924;28.194;2023-05-07T01:42:37;34;32;
55485;PMS5003;49383;-25.924;28.194;2023-05-07T01:45:02;34;33;
55485;PMS5003;49383;-25.924;28.194;2023-05-07T01:47:27;33;31;
55485;PMS5003;49383;-25.924;28.194;2023-05-07T01:49:52;32;32;
55485;PMS5003;49383;-25.924;28.194;2023-05-07T01:52:17;43;38;
55485;PMS5003;49383;-25.924;28.194;2023-05-07T01:54:43;37;36;
55485;PMS5003;49383;-25.924;28.194;2023-05-07T01:57:08;39;36;
55485;PMS5003;49383;-25.924;28.194;2023-05-07T01:59:33;31;29;
55485;PMS5003;49383;-25.924;28.194;2023-05-07T02:01:59;30;30;
55485;PMS5003;49383;-25.924;28.194;2023-05-07T02:04:24;37;31;
55485;PMS5003;49383;-25.924;28.194;2023-05-07T02:06:50;37;36;
55485;PMS5003;49383;-25.924;28.194;2023-05-07T02:09:15;37;33;
55485;PMS5003;49383;-25.924;28.194;2023-05-07T02:11:40;37;34;
55485;PMS5003;49383;-25.924;28.194;2023-05-07T02:14:06;39;36;
55485;PMS5003;49383;-25.924;28.194;2023-05-07T02:16:32;39;38;
55485;PMS5003;49383;-25.924;28.194;2023-05-07T02:18:58;42;37;
55485;PMS5003;49383;-25.924;28.194;2023-05-07T02:21:23;33;31;
55485;PMS5003;49383;-25.924;28.194;2023-05-07T02:23:48;32;31;
55485;PMS5003;49383;-25.924;28.194;2023-05-07T02:26:14;37;34;
55485;PMS5003;49383;-25.924;28.194;2023-05-07T02:28:40;44;40;
55485;PMS5003;49383;-25.924;28.194;2023-05-07T02:31:06;29;29;
55485;PMS5003;49383;-25.924;28.194;2023-05-07T02:33:31;43;42;
55485;PMS5003;49383;-25.924;28.194;2023-05-07T02:35:56;47;44;
55485;PMS5003;49383;-25.924;28.194;2023-05-07T02:38:22;35;33;
55485;PMS5003;49383;-25.924;28.194;2023-05-07T02:40:47;46;42;
55485;PMS5003;49383;-25.924;28.194;2023-05-07T02:43:12;35;32;
55485;PMS5003;49383;-25.924;28.194;2023-05-07T02:45:37;35;32;
55485;PMS5003;49383;-25.924;28.194;2023-05-07T02:48:02;32;29;
55485;PMS5003;49383;-25.924;28.194;2023-05-07T02:50:27;34;32;
55485;PMS5003;49383;-25.924;28.194;2023-05-07T02:52:52;37;34;
55485;PMS5003;49383;-25.924;28.194;2023-05-07T02:55:18;41;32;
55485;PMS5003;49383;-25.924;28.194;2023-05-07T02:57:43;37;35;
55485;PMS5003;49383;-25.924;28.194;2023-05-07T03:00:12;34;30;
55485;PMS5003;49383;-25.924;28.194;2023-05-07T03:02:34;40;39;
55485;PMS5003;49383;-25.924;28.194;2023-05-07T03:05:00;37;36;
55485;PMS5003;49383;-25.924;28.194;2023-05-07T03:07:25;41;35;
55485;PMS5003;49383;-25.924;28.194;2023-05-07T03:09:51;34;32;
55485;PMS5003;49383;-25.924;28.194;2023-05-07T03:12:17;39;37;
55485;PMS5003;49383;-25.924;28.194;2023-05-07T03:14:42;44;40;
55485;PMS5003;49383;-25.924;28.194;2023-05-07T03:17:08;42;37;
55485;PMS5003;49383;-25.924;28.194;2023-05-07T03:19:33;33;32;
55485;PMS5003;49383;-25.924;28.194;2023-05-07T03:22:03;37;35;
55485;PMS5003;49383;-25.924;28.194;2023-05-07T03:24:24;39;35;
55485;PMS5003;49383;-25.924;28.194;2023-05-07T03:26:50;74;67;
55485;PMS5003;49383;-25.924;28.194;2023-05-07T03:29:15;38;35;
55485;PMS5003;49383;-25.924;28.194;2023-05-07T03:31:41;53;47;
55485;PMS5003;49383;-25.924;28.194;2023-05-07T03:34:06;39;35;
55485;PMS5003;49383;-25.924;28.194;2023-05-07T03:36:32;48;44;
55485;PMS5003;49383;-25.924;28.194;2023-05-07T03:38:57;36;33;
55485;PMS5003;49383;-25.924;28.194;2023-05-07T03:41:22;32;31;
55485;PMS5003;49383;-25.924;28.194;2023-05-07T03:43:47;48;48;
55485;PMS5003;49383;-25.924;28.194;2023-05-07T03:46:13;40;39;
55485;PMS5003;49383;-25.924;28.194;2023-05-07T03:48:38;45;40;
55485;PMS5003;49383;-25.924;28.194;2023-05-07T03:51:04;45;40;
55485;PMS5003;49383;-25.924;28.194;2023-05-07T03:53:29;49;48;
55485;PMS5003;49383;-25.924;28.194;2023-05-07T03:55:55;42;38;
55485;PMS5003;49383;-25.924;28.194;2023-05-07T03:58:21;59;51;
55485;PMS5003;49383;-25.924;28.194;2023-05-07T04:00:46;45;43;
55485;PMS5003;49383;-25.924;28.194;2023-05-07T04:03:12;56;55;
55485;PMS5003;49383;-25.924;28.194;2023-05-07T04:05:37;52;52;
55485;PMS5003;49383;-25.924;28.194;2023-05-07T04:08:03;47;45;
55485;PMS5003;49383;-25.924;28.194;2023-05-07T04:10:29;47;45;
55485;PMS5003;49383;-25.924;28.194;2023-05-07T04:12:53;34;33;
55485;PMS5003;49383;-25.924;28.194;2023-05-07T04:15:19;53;49;
55485;PMS5003;49383;-25.924;28.194;2023-05-07T04:17:45;42;40;
55485;PMS5003;49383;-25.924;28.194;2023-05-07T04:20:14;41;35;
55485;PMS5003;49383;-25.924;28.194;2023-05-07T04:22:36;49;45;
55485;PMS5003;49383;-25.924;28.194;2023-05-07T04:25:01;39;39;
55485;PMS5003;49383;-25.924;28.194;2023-05-07T04:27:27;52;48;
55485;PMS5003;49383;-25.924;28.194;2023-05-07T04:29:52;63;61;
55485;PMS5003;49383;-25.924;28.194;2023-05-07T04:32:17;43;40;
55485;PMS5003;49383;-25.924;28.194;2023-05-07T04:34:42;58;53;
55485;PMS5003;49383;-25.924;28.194;2023-05-07T04:37:08;44;36;
55485;PMS5003;49383;-25.924;28.194;2023-05-07T04:39:33;33;29;
55485;PMS5003;49383;-25.924;28.194;2023-05-07T04:41:59;38;35;
55485;PMS5003;49383;-25.924;28.194;2023-05-07T04:44:25;43;39;
55485;PMS5003;49383;-25.924;28.194;2023-05-07T04:46:50;42;41;
55485;PMS5003;49383;-25.924;28.194;2023-05-07T04:49:15;43;38;
55485;PMS5003;49383;-25.924;28.194;2023-05-07T04:51:41;46;44;
55485;PMS5003;49383;-25.924;28.194;2023-05-07T04:54:07;40;34;
55485;PMS5003;49383;-25.924;28.194;2023-05-07T04:56:32;51;48;
55485;PMS5003;49383;-25.924;28.194;2023-05-07T04:58:57;40;36;
55485;PMS5003;49383;-25.924;28.194;2023-05-07T05:01:22;41;38;
55485;PMS5003;49383;-25.924;28.194;2023-05-07T05:03:48;43;39;
55485;PMS5003;49383;-25.924;28.194;2023-05-07T05:06:13;56;53;
55485;PMS5003;49383;-25.924;28.194;2023-05-07T05:08:39;48;44;
55485;PMS5003;49383;-25.924;28.194;2023-05-07T05:11:04;44;39;
55485;PMS5003;49383;-25.924;28.194;2023-05-07T05:13:30;65;62;
55485;PMS5003;49383;-25.924;28.194;2023-05-07T05:15:56;51;45;
55485;PMS5003;49383;-25.924;28.194;2023-05-07T05:18:22;43;41;
55485;PMS5003;49383;-25.924;28.194;2023-05-07T05:20:47;61;59;
55485;PMS5003;49383;-25.924;28.194;2023-05-07T05:23:12;39;35;
55485;PMS5003;49383;-25.924;28.194;2023-05-07T05:25:38;35;33;
55485;PMS5003;49383;-25.924;28.194;2023-05-07T05:28:03;34;34;
55485;PMS5003;49383;-25.924;28.194;2023-05-07T05:30:29;37;35;
55485;PMS5003;49383;-25.924;28.194;2023-05-07T05:32:54;40;34;
55485;PMS5003;49383;-25.924;28.194;2023-05-07T05:35:19;57;56;
55485;PMS5003;49383;-25.924;28.194;2023-05-07T05:37:44;40;32;
55485;PMS5003;49383;-25.924;28.194;2023-05-07T05:40:10;35;34;
55485;PMS5003;49383;-25.924;28.194;2023-05-07T05:42:37;39;34;
55485;PMS5003;49383;-25.924;28.194;2023-05-07T05:45:01;39;37;
55485;PMS5003;49383;-25.924;28.194;2023-05-07T05:47:26;40;35;
55485;PMS5003;49383;-25.924;28.194;2023-05-07T05:49:52;50;49;
55485;PMS5003;49383;-25.924;28.194;2023-05-07T05:52:17;41;39;
55485;PMS5003;49383;-25.924;28.194;2023-05-07T05:54:42;36;34;
55485;PMS5003;49383;-25.924;28.194;2023-05-07T05:57:08;46;37;
55485;PMS5003;49383;-25.924;28.194;2023-05-07T05:59:33;39;37;
55485;PMS5003;49383;-25.924;28.194;2023-05-07T06:01:58;35;32;
55485;PMS5003;49383;-25.924;28.194;2023-05-07T06:04:23;34;34;
55485;PMS5003;49383;-25.924;28.194;2023-05-07T06:06:49;39;38;
55485;PMS5003;49383;-25.924;28.194;2023-05-07T06:09:17;38;33;
55485;PMS5003;49383;-25.924;28.194;2023-05-07T06:11:40;38;37;
55485;PMS5003;49383;-25.924;28.194;2023-05-07T06:14:06;34;31;
55485;PMS5003;49383;-25.924;28.194;2023-05-07T06:16:31;33;33;
55485;PMS5003;49383;-25.924;28.194;2023-05-07T06:18:56;38;34;
55485;PMS5003;49383;-25.924;28.194;2023-05-07T06:21:22;39;32;
55485;PMS5003;49383;-25.924;28.194;2023-05-07T06:23:48;31;30;
55485;PMS5003;49383;-25.924;28.194;2023-05-07T06:26:13;34;33;
55485;PMS5003;49383;-25.924;28.194;2023-05-07T06:28:39;32;32;
55485;PMS5003;49383;-25.924;28.194;2023-05-07T06:33:29;35;34;
55485;PMS5003;49383;-25.924;28.194;2023-05-07T06:35:55;34;33;
55485;PMS5003;49383;-25.924;28.194;2023-05-07T06:38:21;39;34;
55485;PMS5003;49383;-25.924;28.194;2023-05-07T06:40:48;33;31;
55485;PMS5003;49383;-25.924;28.194;2023-05-07T06:43:11;38;34;
55485;PMS5003;49383;-25.924;28.194;2023-05-07T06:45:37;33;32;
55485;PMS5003;49383;-25.924;28.194;2023-05-07T06:48:03;35;34;
55485;PMS5003;49383;-25.924;28.194;2023-05-07T06:50:28;32;31;
55485;PMS5003;49383;-25.924;28.194;2023-05-07T06:52:54;36;35;
55485;PMS5003;49383;-25.924;28.194;2023-05-07T06:55:19;37;35;
55485;PMS5003;49383;-25.924;28.194;2023-05-07T06:57:44;37;35;
55485;PMS5003;49383;-25.924;28.194;2023-05-07T07:00:10;34;33;
55485;PMS5003;49383;-25.924;28.194;2023-05-07T07:02:36;37;35;
55485;PMS5003;49383;-25.924;28.194;2023-05-07T07:05:00;34;30;
55485;PMS5003;49383;-25.924;28.194;2023-05-07T07:07:25;41;34;
55485;PMS5003;49383;-25.924;28.194;2023-05-07T07:09:51;34;34;
55485;PMS5003;49383;-25.924;28.194;2023-05-07T07:12:17;34;31;
55485;PMS5003;49383;-25.924;28.194;2023-05-07T07:14:42;37;34;
55485;PMS5003;49383;-25.924;28.194;2023-05-07T07:17:08;31;31;
55485;PMS5003;49383;-25.924;28.194;2023-05-07T07:19:34;32;30;
55485;PMS5003;49383;-25.924;28.194;2023-05-07T07:21:59;37;31;
55485;PMS5003;49383;-25.924;28.194;2023-05-07T07:24:24;33;32;
55485;PMS5003;49383;-25.924;28.194;2023-05-07T07:26:50;30;29;
55485;PMS5003;49383;-25.924;28.194;2023-05-07T07:29:15;31;30;
55485;PMS5003;49383;-25.924;28.194;2023-05-07T07:31:40;39;34;
55485;PMS5003;49383;-25.924;28.194;2023-05-07T07:34:05;30;30;
55485;PMS5003;49383;-25.924;28.194;2023-05-07T07:36:30;33;32;
55485;PMS5003;49383;-25.924;28.194;2023-05-07T07:38:55;31;30;
55485;PMS5003;49383;-25.924;28.194;2023-05-07T07:41:21;29;26;
55485;PMS5003;49383;-25.924;28.194;2023-05-07T07:43:46;33;30;
55485;PMS5003;49383;-25.924;28.194;2023-05-07T07:46:12;32;31;
55485;PMS5003;49383;-25.924;28.194;2023-05-07T07:48:37;33;29;
55485;PMS5003;49383;-25.924;28.194;2023-05-07T07:51:03;32;30;
55485;PMS5003;49383;-25.924;28.194;2023-05-07T07:53:28;42;36;
55485;PMS5003;49383;-25.924;28.194;2023-05-07T07:55:54;34;30;
55485;PMS5003;49383;-25.924;28.194;2023-05-07T07:58:19;30;28;
55485;PMS5003;49383;-25.924;28.194;2023-05-07T08:00:44;27;27;
55485;PMS5003;49383;-25.924;28.194;2023-05-07T08:03:09;29;26;
55485;PMS5003;49383;-25.924;28.194;2023-05-07T08:05:35;35;31;
55485;PMS5003;49383;-25.924;28.194;2023-05-07T08:08:00;27;27;
55485;PMS5003;49383;-25.924;28.194;2023-05-07T08:10:26;27;26;
55485;PMS5003;49383;-25.924;28.194;2023-05-07T08:12:51;31;27;
55485;PMS5003;49383;-25.924;28.194;2023-05-07T08:15:17;28;27;
55485;PMS5003;49383;-25.924;28.194;2023-05-07T08:17:42;26;26;
55485;PMS5003;49383;-25.924;28.194;2023-05-07T08:20:07;27;25;
55485;PMS5003;49383;-25.924;28.194;2023-05-07T08:22:34;29;24;
55485;PMS5003;49383;-25.924;28.194;2023-05-07T08:25:02;27;27;
55485;PMS5003;49383;-25.924;28.194;2023-05-07T08:27:24;27;26;
55485;PMS5003;49383;-25.924;28.194;2023-05-07T08:29:49;29;24;
55485;PMS5003;49383;-25.924;28.194;2023-05-07T08:32:15;26;24;
55485;PMS5003;49383;-25.924;28.194;2023-05-07T08:34:40;28;24;
55485;PMS5003;49383;-25.924;28.194;2023-05-07T08:37:05;28;26;
55485;PMS5003;49383;-25.924;28.194;2023-05-07T08:39:31;27;25;
55485;PMS5003;49383;-25.924;28.194;2023-05-07T08:41:56;24;23;
55485;PMS5003;49383;-25.924;28.194;2023-05-07T08:44:22;23;23;
55485;PMS5003;49383;-25.924;28.194;2023-05-07T08:46:48;24;24;
55485;PMS5003;49383;-25.924;28.194;2023-05-07T08:49:14;27;24;
55485;PMS5003;49383;-25.924;28.194;2023-05-07T08:51:39;23;23;
55485;PMS5003;49383;-25.924;28.194;2023-05-07T08:54:05;23;23;
55485;PMS5003;49383;-25.924;28.194;2023-05-07T08:56:30;21;21;
55485;PMS5003;49383;-25.924;28.194;2023-05-07T08:58:56;27;23;
55485;PMS5003;49383;-25.924;28.194;2023-05-07T09:01:22;23;22;
55485;PMS5003;49383;-25.924;28.194;2023-05-07T09:03:47;23;21;
55485;PMS5003;49383;-25.924;28.194;2023-05-07T09:06:13;26;22;
55485;PMS5003;49383;-25.924;28.194;2023-05-07T09:08:38;24;23;
55485;PMS5003;49383;-25.924;28.194;2023-05-07T09:11:04;21;21;
55485;PMS5003;49383;-25.924;28.194;2023-05-07T09:13:29;21;21;
55485;PMS5003;49383;-25.924;28.194;2023-05-07T09:15:55;21;20;
55485;PMS5003;49383;-25.924;28.194;2023-05-07T09:18:20;20;20;
55485;PMS5003;49383;-25.924;28.194;2023-05-07T09:20:46;20;18;
55485;PMS5003;49383;-25.924;28.194;2023-05-07T09:23:12;26;21;
55485;PMS5003;49383;-25.924;28.194;2023-05-07T09:25:38;19;19;
55485;PMS5003;49383;-25.924;28.194;2023-05-07T09:28:04;20;20;
55485;PMS5003;49383;-25.924;28.194;2023-05-07T09:30:29;19;18;
55485;PMS5003;49383;-25.924;28.194;2023-05-07T09:32:56;19;19;
55485;PMS5003;49383;-25.924;28.194;2023-05-07T09:35:20;19;17;
55485;PMS5003;49383;-25.924;28.194;2023-05-07T09:37:46;20;19;
55485;PMS5003;49383;-25.924;28.194;2023-05-07T09:42:37;19;17;
55485;PMS5003;49383;-25.924;28.194;2023-05-07T09:45:05;21;21;
55485;PMS5003;49383;-25.924;28.194;2023-05-07T09:47:33;18;18;
55485;PMS5003;49383;-25.924;28.194;2023-05-07T09:49:55;18;17;
55485;PMS5003;49383;-25.924;28.194;2023-05-07T09:52:20;17;17;
55485;PMS5003;49383;-25.924;28.194;2023-05-07T09:54:46;18;17;
55485;PMS5003;49383;-25.924;28.194;2023-05-07T09:57:11;20;18;
55485;PMS5003;49383;-25.924;28.194;2023-05-07T09:59:37;16;16;
55485;PMS5003;49383;-25.924;28.194;2023-05-07T10:02:02;17;15;
55485;PMS5003;49383;-25.924;28.194;2023-05-07T10:04:28;15;14;
55485;PMS5003;49383;-25.924;28.194;2023-05-07T10:06:54;15;15;
55485;PMS5003;49383;-25.924;28.194;2023-05-07T10:09:20;15;15;
55485;PMS5003;49383;-25.924;28.194;2023-05-07T10:11:45;17;16;
55485;PMS5003;49383;-25.924;28.194;2023-05-07T10:14:10;18;18;
55485;PMS5003;49383;-25.924;28.194;2023-05-07T10:16:37;16;16;
55485;PMS5003;49383;-25.924;28.194;2023-05-07T10:19:02;16;16;
55485;PMS5003;49383;-25.924;28.194;2023-05-07T10:21:27;17;16;
55485;PMS5003;49383;-25.924;28.194;2023-05-07T10:23:53;17;17;
55485;PMS5003;49383;-25.924;28.194;2023-05-07T10:26:19;18;18;
55485;PMS5003;49383;-25.924;28.194;2023-05-07T10:28:45;19;16;
55485;PMS5003;49383;-25.924;28.194;2023-05-07T10:33:35;16;15;
55485;PMS5003;49383;-25.924;28.194;2023-05-07T10:36:00;17;17;
55485;PMS5003;49383;-25.924;28.194;2023-05-07T10:38:25;15;14;
55485;PMS5003;49383;-25.924;28.194;2023-05-07T10:40:51;17;17;
55485;PMS5003;49383;-25.924;28.194;2023-05-07T10:43:16;15;15;
55485;PMS5003;49383;-25.924;28.194;2023-05-07T10:45:42;15;14;
55485;PMS5003;49383;-25.924;28.194;2023-05-07T10:48:09;16;16;
55485;PMS5003;49383;-25.924;28.194;2023-05-07T10:50:34;14;14;
55485;PMS5003;49383;-25.924;28.194;2023-05-07T10:55:25;12;11;
55485;PMS5003;49383;-25.924;28.194;2023-05-07T10:57:51;16;15;
55485;PMS5003;49383;-25.924;28.194;2023-05-07T11:07:33;15;14;
55485;PMS5003;49383;-25.924;28.194;2023-05-07T11:10:00;15;15;
55485;PMS5003;49383;-25.924;28.194;2023-05-07T11:14:51;17;17;
55485;PMS5003;49383;-25.924;28.194;2023-05-07T11:17:16;18;17;
55485;PMS5003;49383;-25.924;28.194;2023-05-07T11:26:58;14;14;
55485;PMS5003;49383;-25.924;28.194;2023-05-07T11:29:24;15;14;
55485;PMS5003;49383;-25.924;28.194;2023-05-07T11:31:49;17;16;
55485;PMS5003;49383;-25.924;28.194;2023-05-07T11:34:14;15;13;
55485;PMS5003;49383;-25.924;28.194;2023-05-07T11:36:42;14;14;
55485;PMS5003;49383;-25.924;28.194;2023-05-07T11:39:05;16;15;
55485;PMS5003;49383;-25.924;28.194;2023-05-07T11:41:34;16;15;
55485;PMS5003;49383;-25.924;28.194;2023-05-07T11:43:57;14;13;
55485;PMS5003;49383;-25.924;28.194;2023-05-07T11:46:22;15;15;
55485;PMS5003;49383;-25.924;28.194;2023-05-07T11:48:48;16;15;
55485;PMS5003;49383;-25.924;28.194;2023-05-07T11:51:14;15;15;
55485;PMS5003;49383;-25.924;28.194;2023-05-07T11:53:40;15;15;
55485;PMS5003;49383;-25.924;28.194;2023-05-07T11:56:07;13;13;
55485;PMS5003;49383;-25.924;28.194;2023-05-07T11:58:31;14;14;
55485;PMS5003;49383;-25.924;28.194;2023-05-07T12:00:57;16;15;
55485;PMS5003;49383;-25.924;28.194;2023-05-07T12:03:22;14;13;
55485;PMS5003;49383;-25.924;28.194;2023-05-07T12:05:47;15;15;
55485;PMS5003;49383;-25.924;28.194;2023-05-07T12:08:14;17;17;
55485;PMS5003;49383;-25.924;28.194;2023-05-07T12:10:42;14;12;
55485;PMS5003;49383;-25.924;28.194;2023-05-07T12:13:08;17;15;
55485;PMS5003;49383;-25.924;28.194;2023-05-07T12:15:30;12;12;
55485;PMS5003;49383;-25.924;28.194;2023-05-07T12:17:56;14;14;
55485;PMS5003;49383;-25.924;28.194;2023-05-07T12:20:22;16;15;
55485;PMS5003;49383;-25.924;28.194;2023-05-07T12:22:48;17;14;
55485;PMS5003;49383;-25.924;28.194;2023-05-07T12:25:14;15;14;
55485;PMS5003;49383;-25.924;28.194;2023-05-07T12:27:40;16;16;
55485;PMS5003;49383;-25.924;28.194;2023-05-07T12:30:06;14;14;
55485;PMS5003;49383;-25.924;28.194;2023-05-07T12:32:30;16;15;
55485;PMS5003;49383;-25.924;28.194;2023-05-07T12:34:56;18;17;
55485;PMS5003;49383;-25.924;28.194;2023-05-07T12:37:23;14;14;
55485;PMS5003;49383;-25.924;28.194;2023-05-07T12:39:48;14;14;
55485;PMS5003;49383;-25.924;28.194;2023-05-07T12:42:15;14;14;
55485;PMS5003;49383;-25.924;28.194;2023-05-07T12:44:39;14;14;
55485;PMS5003;49383;-25.924;28.194;2023-05-07T12:47:05;14;14;
55485;PMS5003;49383;-25.924;28.194;2023-05-07T12:49:31;14;13;
55485;PMS5003;49383;-25.924;28.194;2023-05-07T12:51:57;17;15;
55485;PMS5003;49383;-25.924;28.194;2023-05-07T12:56:49;15;14;
55485;PMS5003;49383;-25.924;28.194;2023-05-07T12:59:14;17;14;
55485;PMS5003;49383;-25.924;28.194;2023-05-07T13:01:40;15;14;
55485;PMS5003;49383;-25.924;28.194;2023-05-07T13:04:06;14;14;
55485;PMS5003;49383;-25.924;28.194;2023-05-07T13:06:31;14;14;
55485;PMS5003;49383;-25.924;28.194;2023-05-07T13:08:57;14;14;
55485;PMS5003;49383;-25.924;28.194;2023-05-07T13:11:23;15;15;
55485;PMS5003;49383;-25.924;28.194;2023-05-07T13:13:48;13;13;
55485;PMS5003;49383;-25.924;28.194;2023-05-07T13:16:13;15;15;
55485;PMS5003;49383;-25.924;28.194;2023-05-07T13:18:39;16;15;
55485;PMS5003;49383;-25.924;28.194;2023-05-07T13:21:05;13;13;
55485;PMS5003;49383;-25.924;28.194;2023-05-07T13:23:30;14;14;
55485;PMS5003;49383;-25.924;28.194;2023-05-07T13:25:56;14;13;
55485;PMS5003;49383;-25.924;28.194;2023-05-07T13:28:22;15;14;
55485;PMS5003;49383;-25.924;28.194;2023-05-07T13:30:48;17;16;
55485;PMS5003;49383;-25.924;28.194;2023-05-07T13:33:14;14;14;
55485;PMS5003;49383;-25.924;28.194;2023-05-07T13:35:39;19;18;
55485;PMS5003;49383;-25.924;28.194;2023-05-07T13:38:05;13;13;
55485;PMS5003;49383;-25.924;28.194;2023-05-07T13:40:31;16;16;
55485;PMS5003;49383;-25.924;28.194;2023-05-07T13:42:57;16;15;
55485;PMS5003;49383;-25.924;28.194;2023-05-07T13:45:23;16;16;
55485;PMS5003;49383;-25.924;28.194;2023-05-07T13:47:49;16;16;
55485;PMS5003;49383;-25.924;28.194;2023-05-07T13:50:15;12;12;
55485;PMS5003;49383;-25.924;28.194;2023-05-07T13:52:41;14;13;
55485;PMS5003;49383;-25.924;28.194;2023-05-07T13:55:06;18;17;
55485;PMS5003;49383;-25.924;28.194;2023-05-07T13:57:31;14;14;
55485;PMS5003;49383;-25.924;28.194;2023-05-07T13:59:57;12;12;
55485;PMS5003;49383;-25.924;28.194;2023-05-07T14:02:22;15;14;
55485;PMS5003;49383;-25.924;28.194;2023-05-07T14:04:47;15;15;
55485;PMS5003;49383;-25.924;28.194;2023-05-07T14:07:13;15;15;
55485;PMS5003;49383;-25.924;28.194;2023-05-07T14:09:38;17;16;
55485;PMS5003;49383;-25.924;28.194;2023-05-07T14:12:04;16;15;
55485;PMS5003;49383;-25.924;28.194;2023-05-07T14:14:29;15;14;
55485;PMS5003;49383;-25.924;28.194;2023-05-07T14:16:55;17;17;
55485;PMS5003;49383;-25.924;28.194;2023-05-07T14:19:21;15;14;
55485;PMS5003;49383;-25.924;28.194;2023-05-07T14:21:47;13;13;
55485;PMS5003;49383;-25.924;28.194;2023-05-07T14:24:12;16;15;
55485;PMS5003;49383;-25.924;28.194;2023-05-07T14:26:38;13;13;
55485;PMS5003;49383;-25.924;28.194;2023-05-07T14:29:04;13;13;
55485;PMS5003;49383;-25.924;28.194;2023-05-07T14:31:29;16;15;
55485;PMS5003;49383;-25.924;28.194;2023-05-07T14:33:55;13;12;
55485;PMS5003;49383;-25.924;28.194;2023-05-07T14:36:20;13;13;
55485;PMS5003;49383;-25.924;28.194;2023-05-07T14:38:46;16;15;
55485;PMS5003;49383;-25.924;28.194;2023-05-07T14:41:11;18;17;
55485;PMS5003;49383;-25.924;28.194;2023-05-07T14:43:37;18;18;
55485;PMS5003;49383;-25.924;28.194;2023-05-07T14:46:03;17;17;
55485;PMS5003;49383;-25.924;28.194;2023-05-07T14:48:28;16;16;
55485;PMS5003;49383;-25.924;28.194;2023-05-07T14:50:53;18;18;
55485;PMS5003;49383;-25.924;28.194;2023-05-07T14:53:19;15;15;
55485;PMS5003;49383;-25.924;28.194;2023-05-07T14:55:48;19;19;
55485;PMS5003;49383;-25.924;28.194;2023-05-07T14:58:10;13;12;
55485;PMS5003;49383;-25.924;28.194;2023-05-07T15:00:34;18;18;
55485;PMS5003;49383;-25.924;28.194;2023-05-07T15:03:03;20;20;
55485;PMS5003;49383;-25.924;28.194;2023-05-07T15:05:24;23;22;
55485;PMS5003;49383;-25.924;28.194;2023-05-07T15:07:49;18;18;
55485;PMS5003;49383;-25.924;28.194;2023-05-07T15:10:15;22;21;
55485;PMS5003;49383;-25.924;28.194;2023-05-07T15:12:41;15;15;
55485;PMS5003;49383;-25.924;28.194;2023-05-07T15:15:06;19;19;
55485;PMS5003;49383;-25.924;28.194;2023-05-07T15:17:31;21;20;
55485;PMS5003;49383;-25.924;28.194;2023-05-07T15:19:56;17;17;
55485;PMS5003;49383;-25.924;28.194;2023-05-07T15:22:21;18;18;
55485;PMS5003;49383;-25.924;28.194;2023-05-07T15:24:50;16;16;
55485;PMS5003;49383;-25.924;28.194;2023-05-07T15:27:11;17;17;
55485;PMS5003;49383;-25.924;28.194;2023-05-07T15:29:38;18;17;
55485;PMS5003;49383;-25.924;28.194;2023-05-07T15:32:02;16;16;
55485;PMS5003;49383;-25.924;28.194;2023-05-07T15:34:27;19;18;
55485;PMS5003;49383;-25.924;28.194;2023-05-07T15:36:52;17;17;
55485;PMS5003;49383;-25.924;28.194;2023-05-07T15:39:17;15;14;
55485;PMS5003;49383;-25.924;28.194;2023-05-07T15:41:43;17;15;
55485;PMS5003;49383;-25.924;28.194;2023-05-07T15:44:08;16;16;
55485;PMS5003;49383;-25.924;28.194;2023-05-07T15:46:33;18;18;
55485;PMS5003;49383;-25.924;28.194;2023-05-07T15:48:58;21;21;
55485;PMS5003;49383;-25.924;28.194;2023-05-07T15:51:22;24;23;
55485;PMS5003;49383;-25.924;28.194;2023-05-07T15:53:48;16;16;
55485;PMS5003;49383;-25.924;28.194;2023-05-07T15:56:13;20;20;
55485;PMS5003;49383;-25.924;28.194;2023-05-07T15:58:38;22;22;
55485;PMS5003;49383;-25.924;28.194;2023-05-07T16:01:03;26;24;
55485;PMS5003;49383;-25.924;28.194;2023-05-07T16:03:28;31;31;